Altus Air Force Base
KLTS : now visible

Airfield :











YOU CAN JOIN US ON...

 
LOGIN :

Register | Disclaimer

   EN    FR    IT 

 









Legend :    VFR   Marginal VFR   IFR   Intensive IFR   Very Intensive IFR
Visi :
Ceiling :
>= 8 km
>= 3000ft
5 to 8 km
1000 to 3000 ft
1500m to 5 km
500 to 1000 ft
800 to 1500m
200 to 500 ft
< 800m
< 200 ft
Symbols :   Thunderstorms  Fog  Heavy snow  Heavy precipitations  Wind > 20 kt







- Airport Elevation : 1382 ft


KLTS - Altus Air Force Base

CURRENT METAR :
  • 201956Z 16009KT 10SM FEW020 BKN100 29/20 A2989 RMK AO2A SLP107 T02870201 $

EXPIRED METARs :
  • 201911Z 18007KT 10SM FEW022 BKN100 28/20 A2992 RMK AO2A SLP118 $
  • 201856Z 15004KT 10SM FEW019 BKN060 28/20 A2992 RMK AO2A SLP118 T02810198 $
  • 201826Z AUTO 17005KT 10SM BKN015 BKN023 26/21 A2995 RMK AO2 CIG 015V023 CIG 014 RWY35R SLP128 FZRANO $
  • 201811Z 16004KT 10SM SCT014 BKN030 OVC080 26/21 A2996 RMK AO2A CIG 013 RWY35L CIG 012 RWY35R SLP131 $
  • 201756Z 16003KT 10SM BKN016 26/21 A2996 RMK AO2A BKN V OVC CIG 012 RWY35L CIG 012 RWY35R SLP131 T02570205 10257 20195 58004 $
  • 201726Z 20004KT 10SM OVC015 25/21 A2998 RMK AO2A CIG 013 RWY17L CIG 011 RWY35L CIG 012 RWY35R SLP138 $

TAF TAF KLTS
Valid from the 20 at 17:00 until the 21 at 23:00 UTC


201700Z 2017/2123 VRB06KT 9999 OVC010 QNH2993INS
BECMG 2017/2018 15008KT 9999 SCT020 BKN050 OVC100 QNH2991INS
BECMG 2022/2023 18015G25KT 9000 -SHRA SCT035 BKN050 OVC100 510273 QNH2985INS
TEMPO 2023/2104 21030G40KT 9000 -TSRA SCT035CB OVC050
BECMG 2104/2105 16009KT 9000 -SHRA VCTS BKN020CB 520032 510804 QNH2997INS
BECMG 2114/2115 18015G20KT 9999 NSW BKN012 510042 QNH2995INS
BECMG 2121/2122 19025G30KT 9999 OVC050 510042 QNH2990INS TX32/2021Z TN19/2112Z
No reported NOTAMs for that airfield.



MET'MAP, your aeronautical weather chart ! - Copyright ORBIFLY December 2007 - Disclaimer

ORBIFLY MET'MAP TEAM :

Programming & Development : Alexandra Zaïnal
Concept & Development : Baudouin d'Aumeries
Co-Development & Prog : Marc-Olivier Méhu
Technical & hardware support : Manuel Goepfert

Contact : metmap@orbifly.com




SOURCES & CREDITS :

   NOAA       Earth
Advisory